createdAt,value
2023-09-05T00:01:59.242Z,21.21
2023-09-05T00:04:27.366Z,21.57
2023-09-05T00:06:54.892Z,21.48
2023-09-05T00:09:22.901Z,21.26
2023-09-05T00:11:51.881Z,21.24
2023-09-05T00:14:21.743Z,21.14
2023-09-05T00:16:49.370Z,20.86
2023-09-05T00:19:17.633Z,20.99
2023-09-05T00:21:45.185Z,20.99
2023-09-05T00:24:37.621Z,20.90
2023-09-05T00:27:11.178Z,20.83
2023-09-05T00:29:40.013Z,20.93
2023-09-05T00:32:10.801Z,21.21
2023-09-05T00:34:39.389Z,20.95
2023-09-05T00:37:08.855Z,20.76
2023-09-05T00:39:41.399Z,20.43
2023-09-05T00:42:12.199Z,20.84
2023-09-05T00:44:40.319Z,20.59
2023-09-05T00:47:07.971Z,21.07
2023-09-05T00:49:49.196Z,20.85
2023-09-05T00:52:19.480Z,21.11
2023-09-05T00:54:47.265Z,21.03
2023-09-05T00:57:16.070Z,20.54
2023-09-05T00:59:44.631Z,20.62
2023-09-05T01:02:12.214Z,20.67
2023-09-05T01:04:40.232Z,20.60
2023-09-05T01:07:14.032Z,20.68
2023-09-05T01:10:04.569Z,20.56
2023-09-05T01:12:32.565Z,21.17
2023-09-05T01:15:00.057Z,21.27
2023-09-05T01:17:28.127Z,20.87
2023-09-05T01:19:57.165Z,20.73
2023-09-05T01:22:36.841Z,20.95
2023-09-05T01:25:05.559Z,21.20
2023-09-05T01:27:33.899Z,21.06
2023-09-05T01:30:02.132Z,21.27
2023-09-05T01:32:29.949Z,21.10
2023-09-05T01:34:57.620Z,21.17
2023-09-05T01:37:25.196Z,21.09
2023-09-05T01:39:53.097Z,21.06
2023-09-05T01:42:20.615Z,21.14
2023-09-05T01:44:48.252Z,21.04
2023-09-05T01:47:16.094Z,20.75
2023-09-05T01:49:43.598Z,20.87
2023-09-05T01:52:11.204Z,21.28
2023-09-05T01:54:40.977Z,21.03
2023-09-05T01:57:08.630Z,21.07
2023-09-05T01:59:36.116Z,20.97
2023-09-05T02:02:04.178Z,21.14
2023-09-05T02:04:32.119Z,21.35
2023-09-05T02:07:00.198Z,21.21
2023-09-05T02:09:39.544Z,21.15
2023-09-05T02:12:07.588Z,21.18
2023-09-05T02:14:37.518Z,20.93
2023-09-05T02:17:05.228Z,20.75
2023-09-05T02:19:34.309Z,20.83
2023-09-05T02:22:04.315Z,20.92
2023-09-05T02:24:32.979Z,20.68
2023-09-05T02:27:03.035Z,21.12
2023-09-05T02:29:31.325Z,20.80
2023-09-05T02:31:58.856Z,21.05
2023-09-05T02:34:26.416Z,20.83
2023-09-05T02:36:56.025Z,20.74
2023-09-05T02:39:23.624Z,20.94
2023-09-05T02:41:51.369Z,21.12
2023-09-05T02:44:19.377Z,20.94
2023-09-05T02:46:46.917Z,20.73
2023-09-05T02:49:14.440Z,20.83
2023-09-05T02:51:42.368Z,20.98
2023-09-05T02:54:10.038Z,20.71
2023-09-05T02:56:38.581Z,20.29
2023-09-05T02:59:06.562Z,20.44
2023-09-05T03:01:34.224Z,20.55
2023-09-05T03:04:02.256Z,20.56
2023-09-05T03:06:30.344Z,21.02
2023-09-05T03:08:58.321Z,20.28
2023-09-05T03:11:26.047Z,20.38
2023-09-05T03:13:54.024Z,20.24
2023-09-05T03:16:22.955Z,20.38
2023-09-05T03:18:51.572Z,20.60
2023-09-05T03:21:21.174Z,20.68
2023-09-05T03:23:48.909Z,20.41
2023-09-05T03:26:16.568Z,20.57
2023-09-05T03:28:46.079Z,20.83
2023-09-05T03:31:14.679Z,20.40
2023-09-05T03:33:42.515Z,20.40
2023-09-05T03:36:12.397Z,20.36
2023-09-05T03:38:39.919Z,20.49
2023-09-05T03:41:07.755Z,20.40
2023-09-05T03:43:35.769Z,20.58
2023-09-05T03:46:03.359Z,20.32
2023-09-05T03:48:31.076Z,20.14
2023-09-05T03:50:58.991Z,20.33
2023-09-05T03:53:26.879Z,20.12
2023-09-05T03:55:54.671Z,20.23
2023-09-05T03:58:22.551Z,20.13
2023-09-05T04:00:50.097Z,20.23
2023-09-05T04:03:18.079Z,19.83
2023-09-05T04:05:45.677Z,20.06
2023-09-05T04:08:13.410Z,19.87
2023-09-05T04:10:42.032Z,19.72
2023-09-05T04:13:09.578Z,19.38
2023-09-05T04:15:37.953Z,19.47
2023-09-05T04:18:06.232Z,19.22
2023-09-05T04:20:34.423Z,19.21
2023-09-05T04:23:02.023Z,19.35
2023-09-05T04:25:30.848Z,19.26
2023-09-05T04:27:58.385Z,19.02
2023-09-05T04:30:25.917Z,19.04
2023-09-05T04:33:19.620Z,19.05
2023-09-05T04:35:53.572Z,19.22
2023-09-05T04:38:23.073Z,19.06
2023-09-05T04:40:51.425Z,19.11
2023-09-05T04:43:19.257Z,19.02
2023-09-05T04:45:55.330Z,18.93
2023-09-05T04:48:23.457Z,18.89
2023-09-05T04:50:51.536Z,19.09
2023-09-05T04:53:20.076Z,18.83
2023-09-05T04:55:49.256Z,18.92
2023-09-05T04:58:17.051Z,18.91
2023-09-05T05:00:44.756Z,19.01
2023-09-05T05:03:12.390Z,19.01
2023-09-05T05:05:42.398Z,19.24
2023-09-05T05:08:09.909Z,19.28
2023-09-05T05:10:40.661Z,19.37
2023-09-05T05:13:08.631Z,19.62
2023-09-05T05:15:36.155Z,19.54
2023-09-05T05:18:04.050Z,19.45
2023-09-05T05:20:32.846Z,19.31
2023-09-05T05:23:00.338Z,19.18
2023-09-05T05:25:27.859Z,19.34
2023-09-05T05:27:55.751Z,19.69
2023-09-05T05:30:23.354Z,20.11
2023-09-05T05:32:50.861Z,19.90
2023-09-05T05:35:18.635Z,19.97
2023-09-05T05:37:46.178Z,20.06
2023-09-05T05:40:14.437Z,20.11
2023-09-05T05:42:42.619Z,20.37
2023-09-05T05:45:11.440Z,20.37
2023-09-05T05:47:39.187Z,20.44
2023-09-05T05:50:07.622Z,20.57
2023-09-05T05:52:35.291Z,20.93
2023-09-05T05:55:02.819Z,21.10
2023-09-05T05:57:30.908Z,21.28
2023-09-05T05:59:58.646Z,21.61
2023-09-05T06:02:26.513Z,21.26
2023-09-05T06:04:54.547Z,21.50
2023-09-05T06:07:22.375Z,21.45
2023-09-05T06:09:50.369Z,22.11
2023-09-05T06:12:18.305Z,22.24
2023-09-05T06:14:46.334Z,22.11
2023-09-05T06:17:13.990Z,22.52
2023-09-05T06:19:42.827Z,22.54
2023-09-05T06:22:11.994Z,22.50
2023-09-05T06:24:41.823Z,22.88
2023-09-05T06:27:11.496Z,22.82
2023-09-05T06:29:39.256Z,22.91
2023-09-05T06:32:07.102Z,22.87
2023-09-05T06:34:34.913Z,22.87
2023-09-05T06:37:02.844Z,22.77
2023-09-05T06:39:30.984Z,23.18
2023-09-05T06:41:59.482Z,23.16
2023-09-05T06:44:31.681Z,23.63
2023-09-05T06:46:59.894Z,23.25
2023-09-05T06:49:27.657Z,23.39
2023-09-05T06:51:55.249Z,23.62
2023-09-05T06:54:23.159Z,23.50
2023-09-05T06:56:50.973Z,23.79
2023-09-05T06:59:18.710Z,23.68
2023-09-05T07:01:46.826Z,23.92
2023-09-05T07:04:14.606Z,23.28
2023-09-05T07:06:42.184Z,23.25
2023-09-05T07:09:10.309Z,23.29
2023-09-05T07:11:37.946Z,23.69
2023-09-05T07:14:05.726Z,23.41
2023-09-05T07:16:33.701Z,23.75
2023-09-05T07:19:01.242Z,23.89
2023-09-05T07:21:29.247Z,23.51
2023-09-05T07:23:57.221Z,23.88
2023-09-05T07:26:24.898Z,23.70
2023-09-05T07:28:52.577Z,23.70
2023-09-05T07:31:20.773Z,23.89
2023-09-05T07:33:48.503Z,23.79
2023-09-05T07:36:16.867Z,23.21
2023-09-05T07:38:44.673Z,23.47
2023-09-05T07:41:12.266Z,23.86
2023-09-05T07:43:39.928Z,23.92
2023-09-05T07:46:07.875Z,24.00
2023-09-05T07:48:35.388Z,23.68
2023-09-05T07:51:06.351Z,23.97
2023-09-05T07:53:38.361Z,24.44
2023-09-05T07:56:06.422Z,24.05
2023-09-05T07:58:35.342Z,24.08
2023-09-05T08:01:02.896Z,24.44
2023-09-05T08:03:31.056Z,24.07
2023-09-05T08:05:58.735Z,24.14
2023-09-05T08:08:26.406Z,24.36
2023-09-05T08:10:54.871Z,24.52
2023-09-05T08:13:22.882Z,24.61
2023-09-05T08:15:52.109Z,24.45
2023-09-05T08:18:20.463Z,24.49
2023-09-05T08:20:48.107Z,24.42
2023-09-05T08:23:15.807Z,24.86
2023-09-05T08:25:52.352Z,24.77
2023-09-05T08:28:20.198Z,24.61
2023-09-05T08:30:48.534Z,24.90
2023-09-05T08:33:16.261Z,25.08
2023-09-05T08:35:43.957Z,25.45
2023-09-05T08:38:15.101Z,25.54
2023-09-05T08:40:46.600Z,25.38
2023-09-05T08:43:18.127Z,25.82
2023-09-05T08:45:46.741Z,25.83
2023-09-05T08:48:14.791Z,25.74
2023-09-05T08:50:42.789Z,25.62
2023-09-05T08:53:12.078Z,25.53
2023-09-05T08:55:41.509Z,25.59
2023-09-05T08:58:15.194Z,25.67
2023-09-05T09:00:44.925Z,25.71
2023-09-05T09:03:12.465Z,26.28
2023-09-05T09:05:40.228Z,26.43
2023-09-05T09:08:09.194Z,26.27
2023-09-05T09:10:37.026Z,26.68
2023-09-05T09:13:16.908Z,26.84
2023-09-05T09:15:45.272Z,26.78
2023-09-05T09:18:14.485Z,26.43
2023-09-05T09:20:46.610Z,26.51
2023-09-05T09:23:25.474Z,26.78
2023-09-05T09:25:56.027Z,26.78
2023-09-05T09:28:25.374Z,26.85
2023-09-05T09:31:02.436Z,26.71
2023-09-05T09:33:32.929Z,26.73
2023-09-05T09:36:10.474Z,26.96
2023-09-05T09:38:49.637Z,26.85
2023-09-05T09:41:21.883Z,27.13
2023-09-05T09:43:55.194Z,26.81
2023-09-05T09:46:23.954Z,27.18
2023-09-05T09:48:54.348Z,27.14
2023-09-05T09:51:24.540Z,27.07
2023-09-05T09:53:54.518Z,26.99
2023-09-05T09:56:23.832Z,27.15
2023-09-05T09:58:52.560Z,26.72
2023-09-05T10:01:21.122Z,26.80
2023-09-05T10:03:49.437Z,26.65
2023-09-05T10:06:17.420Z,27.05
2023-09-05T10:08:47.093Z,27.02
2023-09-05T10:11:16.007Z,27.04
2023-09-05T10:13:44.508Z,27.20
2023-09-05T10:16:16.185Z,26.72
2023-09-05T10:18:45.872Z,27.23
2023-09-05T10:21:13.663Z,26.78
2023-09-05T10:23:41.556Z,26.94
2023-09-05T10:26:10.394Z,26.88
2023-09-05T10:28:38.921Z,26.92
2023-09-05T10:31:08.649Z,27.11
2023-09-05T10:33:40.301Z,27.06
2023-09-05T10:36:40.436Z,27.41
2023-09-05T10:39:26.666Z,27.46
2023-09-05T10:41:54.806Z,27.57
2023-09-05T10:44:25.845Z,27.61
2023-09-05T10:46:55.078Z,27.61
2023-09-05T10:49:23.878Z,28.13
2023-09-05T10:52:20.251Z,28.43
2023-09-05T10:54:48.341Z,28.23
2023-09-05T10:57:35.678Z,28.67
2023-09-05T11:00:16.859Z,28.43
2023-09-05T11:02:45.039Z,28.37
2023-09-05T11:05:20.277Z,28.56
2023-09-05T11:07:49.819Z,28.88
2023-09-05T11:10:35.800Z,28.30
2023-09-05T11:13:12.700Z,28.18
2023-09-05T11:15:44.911Z,28.35
2023-09-05T11:18:13.972Z,28.81
2023-09-05T11:20:46.987Z,29.07
2023-09-05T11:23:15.196Z,29.01
2023-09-05T11:25:47.881Z,28.99
2023-09-05T11:28:16.706Z,29.16
2023-09-05T11:30:46.535Z,28.81
2023-09-05T11:33:15.650Z,28.51
2023-09-05T11:35:44.525Z,29.07
2023-09-05T11:38:14.132Z,29.11
2023-09-05T11:40:51.928Z,29.23
2023-09-05T11:43:22.978Z,28.84
2023-09-05T11:45:54.581Z,28.88
2023-09-05T11:48:22.494Z,28.49
2023-09-05T11:50:50.471Z,28.61
2023-09-05T11:53:20.786Z,29.03
2023-09-05T11:55:49.005Z,29.39
2023-09-05T11:58:20.640Z,29.41
2023-09-05T12:00:51.772Z,29.36
2023-09-05T12:03:20.070Z,29.25
2023-09-05T12:05:53.245Z,29.41
2023-09-05T12:08:35.606Z,28.90
2023-09-05T12:11:05.163Z,29.44
2023-09-05T12:13:45.129Z,29.59
2023-09-05T12:16:18.511Z,29.41
2023-09-05T12:18:47.339Z,29.25
2023-09-05T12:21:15.243Z,28.98
2023-09-05T12:23:42.777Z,29.21
2023-09-05T12:26:10.657Z,29.64
2023-09-05T12:28:39.531Z,29.49
2023-09-05T12:31:08.641Z,29.35
2023-09-05T12:33:36.599Z,29.62
2023-09-05T12:36:04.436Z,29.42
2023-09-05T12:38:32.060Z,29.08
2023-09-05T12:41:00.031Z,29.56
2023-09-05T12:43:27.676Z,29.67
2023-09-05T12:45:55.638Z,29.26
2023-09-05T12:48:23.519Z,29.07
2023-09-05T12:50:51.543Z,29.09
2023-09-05T12:53:21.153Z,28.69
2023-09-05T12:55:50.132Z,28.92
2023-09-05T12:58:17.940Z,29.23
2023-09-05T13:00:48.498Z,29.15
2023-09-05T13:03:16.890Z,28.55
2023-09-05T13:05:45.067Z,28.53
2023-09-05T13:08:12.746Z,28.70
2023-09-05T13:10:41.195Z,28.99
2023-09-05T13:13:09.096Z,29.31
2023-09-05T13:15:37.167Z,29.49
2023-09-05T13:18:05.503Z,29.50
2023-09-05T13:20:33.811Z,29.14
2023-09-05T13:23:01.811Z,28.93
2023-09-05T13:25:34.387Z,28.94
2023-09-05T13:28:06.967Z,28.65
2023-09-05T13:30:35.822Z,28.67
2023-09-05T13:33:04.401Z,28.53
2023-09-05T13:35:36.948Z,29.17
2023-09-05T13:38:04.997Z,29.12
2023-09-05T13:40:32.712Z,29.12
2023-09-05T13:43:01.158Z,29.48
2023-09-05T13:45:29.936Z,29.79
2023-09-05T13:47:57.988Z,30.12
2023-09-05T13:50:26.527Z,29.83
2023-09-05T13:52:54.915Z,29.46
2023-09-05T13:55:23.006Z,29.42
2023-09-05T13:57:51.107Z,29.55
2023-09-05T14:00:21.083Z,28.91
2023-09-05T14:02:49.174Z,28.78
2023-09-05T14:05:17.231Z,29.06
2023-09-05T14:07:44.862Z,29.31
2023-09-05T14:10:14.013Z,29.55
2023-09-05T14:12:42.566Z,29.32
2023-09-05T14:15:10.884Z,29.50
2023-09-05T14:17:39.048Z,28.80
2023-09-05T14:20:09.067Z,28.84
2023-09-05T14:22:36.731Z,28.77
2023-09-05T14:25:05.380Z,28.63
2023-09-05T14:27:33.453Z,28.73
2023-09-05T14:30:01.379Z,28.61
2023-09-05T14:32:33.924Z,28.38
2023-09-05T14:35:02.057Z,28.61
2023-09-05T14:37:30.419Z,28.37
2023-09-05T14:40:01.184Z,28.70
2023-09-05T14:42:35.210Z,28.73
2023-09-05T14:45:07.068Z,29.11
2023-09-05T14:47:35.669Z,28.81
2023-09-05T14:50:04.082Z,28.96
2023-09-05T14:52:35.127Z,28.28
2023-09-05T14:55:10.955Z,28.94
2023-09-05T14:57:40.625Z,28.70
2023-09-05T15:00:13.005Z,28.83
2023-09-05T15:02:42.052Z,28.64
2023-09-05T15:05:10.753Z,28.29
2023-09-05T15:07:39.564Z,28.04
2023-09-05T15:10:19.131Z,28.37
2023-09-05T15:12:46.942Z,28.56
2023-09-05T15:15:15.095Z,28.36
2023-09-05T15:17:43.726Z,28.12
2023-09-05T15:20:11.669Z,28.39
2023-09-05T15:22:40.548Z,28.52
2023-09-05T15:25:19.659Z,28.55
2023-09-05T15:27:48.238Z,28.63
2023-09-05T15:30:19.527Z,28.43
2023-09-05T15:32:47.681Z,28.37
2023-09-05T15:35:16.489Z,28.56
2023-09-05T15:37:45.235Z,28.58
2023-09-05T15:40:12.903Z,28.50
2023-09-05T15:42:41.894Z,28.30
2023-09-05T15:45:10.539Z,28.49
2023-09-05T15:47:38.635Z,28.53
2023-09-05T15:50:09.966Z,28.38
2023-09-05T15:52:37.640Z,28.26
2023-09-05T15:55:05.748Z,28.37
2023-09-05T15:57:33.911Z,28.37
2023-09-05T16:00:01.760Z,28.43
2023-09-05T16:02:39.539Z,28.26
2023-09-05T16:05:07.504Z,28.46
2023-09-05T16:07:35.121Z,28.56
2023-09-05T16:13:24.272Z,28.58
2023-09-05T16:15:53.791Z,28.31
2023-09-05T16:18:22.936Z,28.35
2023-09-05T16:23:22.745Z,28.37
2023-09-05T16:25:51.419Z,28.06
2023-09-05T16:28:19.071Z,28.16
2023-09-05T16:30:47.006Z,28.22
2023-09-05T16:33:15.887Z,28.29
2023-09-05T16:35:43.716Z,28.21
2023-09-05T16:38:11.145Z,28.19
2023-09-05T16:40:39.268Z,28.20
2023-09-05T16:43:06.952Z,28.19
2023-09-05T16:45:34.472Z,28.15
2023-09-05T16:48:02.262Z,28.16
2023-09-05T16:50:32.584Z,28.08
2023-09-05T16:53:00.593Z,28.02
2023-09-05T16:55:28.486Z,27.84
2023-09-05T16:57:56.343Z,27.89
2023-09-05T17:00:24.965Z,27.61
2023-09-05T17:02:53.348Z,27.46
2023-09-05T17:05:20.953Z,27.25
2023-09-05T17:07:48.588Z,27.24
2023-09-05T17:10:16.929Z,27.15
2023-09-05T17:12:44.581Z,27.04
2023-09-05T17:15:13.648Z,26.90
2023-09-05T17:17:43.330Z,26.77
2023-09-05T17:20:11.283Z,26.72
2023-09-05T17:22:39.433Z,26.58
2023-09-05T17:25:07.881Z,26.58
2023-09-05T17:27:35.620Z,26.40
2023-09-05T17:30:03.701Z,26.39
2023-09-05T17:32:32.042Z,26.14
2023-09-05T17:34:59.629Z,26.11
2023-09-05T17:37:27.158Z,25.98
2023-09-05T17:39:55.164Z,25.69
2023-09-05T17:42:22.657Z,25.58
2023-09-05T17:44:50.358Z,25.57
2023-09-05T17:47:18.151Z,25.48
2023-09-05T17:49:45.626Z,25.33
2023-09-05T17:52:13.133Z,25.29
2023-09-05T17:54:41.078Z,25.10
2023-09-05T17:57:09.136Z,25.00
2023-09-05T17:59:41.609Z,24.90
2023-09-05T18:02:09.530Z,24.76
2023-09-05T18:04:37.608Z,24.47
2023-09-05T18:07:05.441Z,24.50
2023-09-05T18:09:33.600Z,24.37
2023-09-05T18:12:02.105Z,24.31
2023-09-05T18:14:29.765Z,24.21
2023-09-05T18:16:57.299Z,24.06
2023-09-05T18:19:25.650Z,23.89
2023-09-05T18:21:53.387Z,23.94
2023-09-05T18:24:21.523Z,24.06
2023-09-05T18:26:50.658Z,23.83
2023-09-05T18:29:20.488Z,23.68
2023-09-05T18:31:48.223Z,23.53
2023-09-05T18:34:42.039Z,23.32
2023-09-05T18:37:10.984Z,23.59
2023-09-05T18:39:39.157Z,23.35
2023-09-05T18:42:07.928Z,23.34
2023-09-05T18:44:40.967Z,23.24
2023-09-05T18:47:09.688Z,23.16
2023-09-05T18:49:38.392Z,22.99
2023-09-05T18:52:07.683Z,23.08
2023-09-05T18:54:37.448Z,22.66
2023-09-05T18:57:09.044Z,22.84
2023-09-05T18:59:37.236Z,22.92
2023-09-05T19:02:05.283Z,22.72
2023-09-05T19:04:33.294Z,22.84
2023-09-05T19:07:04.020Z,22.77
2023-09-05T19:09:31.855Z,22.53
2023-09-05T19:12:00.286Z,22.44
2023-09-05T19:14:28.288Z,22.42
2023-09-05T19:16:57.126Z,22.29
2023-09-05T19:19:28.023Z,22.35
2023-09-05T19:21:56.034Z,22.11
2023-09-05T19:24:23.693Z,22.15
2023-09-05T19:26:51.866Z,22.22
2023-09-05T19:29:19.944Z,21.95
2023-09-05T19:31:47.653Z,22.14
2023-09-05T19:34:15.328Z,22.10
2023-09-05T19:36:43.109Z,22.15
2023-09-05T19:39:10.846Z,21.90
2023-09-05T19:41:38.731Z,21.73
2023-09-05T19:44:06.851Z,21.79
2023-09-05T19:46:34.411Z,21.78
2023-09-05T19:49:06.064Z,21.90
2023-09-05T19:51:34.124Z,21.80
2023-09-05T19:54:01.652Z,21.81
2023-09-05T19:56:29.277Z,21.77
2023-09-05T19:58:57.457Z,21.56
2023-09-05T20:01:25.157Z,21.50
2023-09-05T20:03:53.198Z,21.37
2023-09-05T20:06:21.322Z,21.41
2023-09-05T20:08:48.987Z,21.44
2023-09-05T20:11:16.858Z,21.37
2023-09-05T20:13:44.739Z,21.44
2023-09-05T20:16:14.101Z,21.46
2023-09-05T20:18:42.082Z,21.40
2023-09-05T20:21:10.935Z,21.37
2023-09-05T20:23:39.027Z,21.37
2023-09-05T20:26:07.965Z,21.34
2023-09-05T20:28:36.104Z,21.14
2023-09-05T20:31:05.151Z,21.28
2023-09-05T20:33:33.194Z,21.30
2023-09-05T20:36:05.543Z,21.36
2023-09-05T20:38:34.961Z,21.40
2023-09-05T20:41:02.649Z,21.33
2023-09-05T20:43:30.377Z,20.91
2023-09-05T20:45:58.237Z,21.04
2023-09-05T20:48:26.806Z,20.91
2023-09-05T20:50:54.609Z,20.94
2023-09-05T20:53:22.397Z,20.87
2023-09-05T20:55:50.557Z,20.85
2023-09-05T20:58:18.093Z,20.75
2023-09-05T21:00:45.980Z,20.66
2023-09-05T21:03:13.571Z,20.52
2023-09-05T21:05:41.120Z,20.68
2023-09-05T21:08:08.956Z,20.62
2023-09-05T21:10:37.456Z,20.61
2023-09-05T21:13:05.246Z,20.67
2023-09-05T21:15:33.108Z,20.68
2023-09-05T21:18:00.802Z,20.64
2023-09-05T21:20:28.382Z,20.63
2023-09-05T21:22:56.541Z,20.58
2023-09-05T21:25:24.073Z,20.63
2023-09-05T21:27:51.623Z,20.43
2023-09-05T21:30:19.907Z,20.45
2023-09-05T21:32:48.574Z,20.28
2023-09-05T21:35:16.098Z,20.42
2023-09-05T21:37:45.192Z,20.23
2023-09-05T21:40:12.872Z,20.30
2023-09-05T21:42:42.622Z,20.13
2023-09-05T21:45:11.224Z,20.11
2023-09-05T21:47:38.965Z,20.16
2023-09-05T21:50:08.266Z,20.12
2023-09-05T21:52:36.160Z,20.13
2023-09-05T21:55:03.968Z,20.02
2023-09-05T21:57:31.932Z,19.97
2023-09-05T21:59:59.899Z,20.00
2023-09-05T22:02:28.553Z,19.92
2023-09-05T22:04:58.070Z,19.90
2023-09-05T22:07:25.633Z,19.89
2023-09-05T22:09:53.265Z,19.87
2023-09-05T22:12:22.184Z,19.91
2023-09-05T22:14:49.800Z,19.88
2023-09-05T22:17:17.987Z,19.76
2023-09-05T22:19:46.190Z,19.73
2023-09-05T22:22:16.425Z,19.76
2023-09-05T22:24:44.021Z,19.82
2023-09-05T22:27:12.029Z,19.71
2023-09-05T22:29:39.621Z,19.71
2023-09-05T22:32:07.289Z,19.65
2023-09-05T22:34:35.229Z,19.61
2023-09-05T22:37:03.998Z,19.56
2023-09-05T22:39:31.557Z,19.74
2023-09-05T22:41:59.568Z,19.73
2023-09-05T22:44:28.323Z,19.62
2023-09-05T22:46:56.291Z,19.47
2023-09-05T22:49:24.265Z,19.64
2023-09-05T22:51:52.011Z,19.38
2023-09-05T22:54:19.711Z,19.45
2023-09-05T22:56:47.736Z,19.27
2023-09-05T22:59:15.394Z,19.31
2023-09-05T23:01:42.958Z,19.13
2023-09-05T23:04:11.069Z,19.20
2023-09-05T23:06:38.697Z,19.30
2023-09-05T23:09:06.468Z,19.01
2023-09-05T23:11:34.513Z,19.11
2023-09-05T23:14:02.032Z,19.10
2023-09-05T23:16:30.199Z,19.11
2023-09-05T23:19:06.053Z,19.08
2023-09-05T23:21:33.748Z,19.29
2023-09-05T23:24:01.843Z,18.95
2023-09-05T23:26:30.810Z,18.99
2023-09-05T23:28:59.222Z,18.88
2023-09-05T23:31:28.338Z,18.80
2023-09-05T23:33:58.493Z,18.84
2023-09-05T23:36:26.781Z,18.85
2023-09-05T23:38:54.559Z,18.95
2023-09-05T23:41:28.007Z,18.84
2023-09-05T23:43:57.243Z,18.81
2023-09-05T23:46:24.934Z,18.90
2023-09-05T23:48:54.037Z,18.79
2023-09-05T23:51:22.246Z,18.90
2023-09-05T23:53:49.753Z,18.85
2023-09-05T23:56:17.514Z,18.67
2023-09-05T23:58:45.759Z,18.74
